createdAt,value
2018-10-21T00:02:28.367Z,12.35
2018-10-21T00:04:56.654Z,12.88
2018-10-21T00:07:24.906Z,13.40
2018-10-21T00:09:53.115Z,10.23
2018-10-21T00:12:21.364Z,12.68
2018-10-21T00:14:49.526Z,12.97
2018-10-21T00:17:17.776Z,12.23
2018-10-21T00:19:46.046Z,11.13
2018-10-21T00:22:15.089Z,12.25
2018-10-21T00:24:43.327Z,13.80
2018-10-21T00:27:11.613Z,13.13
2018-10-21T00:29:39.791Z,13.80
2018-10-21T00:32:07.992Z,13.97
2018-10-21T00:34:36.162Z,14.07
2018-10-21T00:37:04.762Z,13.70
2018-10-21T00:39:32.966Z,13.67
2018-10-21T00:42:01.179Z,14.05
2018-10-21T00:44:29.377Z,14.13
2018-10-21T00:46:57.581Z,14.40
2018-10-21T00:49:25.831Z,15.05
2018-10-21T00:51:54.062Z,15.10
2018-10-21T00:54:22.358Z,14.80
2018-10-21T00:56:50.556Z,14.73
2018-10-21T00:59:18.848Z,14.57
2018-10-21T01:01:47.057Z,14.35
2018-10-21T01:04:15.324Z,13.37
2018-10-21T01:06:43.490Z,13.35
2018-10-21T01:09:13.186Z,15.00
2018-10-21T01:11:42.341Z,15.08
2018-10-21T01:14:10.742Z,14.47
2018-10-21T01:16:38.947Z,13.63
2018-10-21T01:19:07.207Z,15.72
2018-10-21T01:21:36.022Z,15.57
2018-10-21T01:24:04.299Z,16.97
2018-10-21T01:26:32.503Z,14.57
2018-10-21T01:29:00.673Z,14.13
2018-10-21T01:31:28.859Z,15.40
2018-10-21T01:33:57.081Z,14.00
2018-10-21T01:36:25.644Z,15.30
2018-10-21T01:38:53.491Z,14.60
2018-10-21T01:41:21.717Z,15.23
2018-10-21T01:43:49.950Z,15.03
2018-10-21T01:46:18.178Z,14.33
2018-10-21T01:48:46.406Z,14.33
2018-10-21T01:51:14.746Z,15.00
2018-10-21T01:53:42.875Z,15.87
2018-10-21T01:56:11.066Z,15.77
2018-10-21T01:58:39.438Z,17.17
2018-10-21T02:01:07.646Z,15.37
2018-10-21T02:03:35.843Z,13.60
2018-10-21T02:06:04.019Z,17.67
2018-10-21T02:08:32.196Z,15.30
2018-10-21T02:11:00.379Z,17.10
2018-10-21T02:13:28.563Z,16.77
2018-10-21T02:15:56.800Z,18.03
2018-10-21T02:18:25.045Z,20.93
2018-10-21T02:20:53.222Z,17.67
2018-10-21T02:23:21.384Z,17.80
2018-10-21T02:25:49.614Z,18.07
2018-10-21T02:28:17.806Z,17.47
2018-10-21T02:30:46.015Z,17.73
2018-10-21T02:33:14.416Z,15.83
2018-10-21T02:35:42.517Z,19.57
2018-10-21T02:38:10.711Z,17.77
2018-10-21T02:42:01.447Z,18.60
2018-10-21T02:44:29.669Z,17.43
2018-10-21T02:46:58.315Z,15.73
2018-10-21T02:49:26.532Z,14.20
2018-10-21T02:52:00.269Z,18.47
2018-10-21T02:54:29.539Z,17.93
2018-10-21T02:56:57.767Z,18.70
2018-10-21T02:59:26.287Z,19.87
2018-10-21T03:01:54.691Z,15.73
2018-10-21T03:04:23.100Z,17.13
2018-10-21T03:06:51.586Z,19.57
2018-10-21T03:09:19.947Z,14.70
2018-10-21T03:11:48.036Z,17.80
2018-10-21T03:14:16.235Z,14.13
2018-10-21T03:16:44.442Z,18.00
2018-10-21T03:19:12.632Z,16.67
2018-10-21T03:21:40.824Z,17.57
2018-10-21T03:24:09.030Z,15.90
2018-10-21T03:26:37.191Z,16.53
2018-10-21T03:29:05.570Z,15.93
2018-10-21T03:31:33.727Z,16.17
2018-10-21T03:34:02.172Z,16.80
2018-10-21T03:36:30.204Z,16.67
2018-10-21T03:38:58.389Z,17.37
2018-10-21T03:41:26.551Z,16.40
2018-10-21T03:43:54.726Z,17.50
2018-10-21T03:46:22.900Z,15.60
2018-10-21T03:48:51.339Z,16.93
2018-10-21T03:51:19.514Z,15.67
2018-10-21T03:53:47.698Z,15.77
2018-10-21T03:56:15.859Z,17.27
2018-10-21T03:58:44.033Z,16.60
2018-10-21T04:01:12.207Z,16.93
2018-10-21T04:03:40.394Z,16.93
2018-10-21T04:06:08.568Z,17.03
2018-10-21T04:08:36.767Z,17.47
2018-10-21T04:11:04.986Z,14.53
2018-10-21T04:13:33.163Z,16.47
2018-10-21T04:16:01.421Z,15.00
2018-10-21T04:18:29.522Z,16.43
2018-10-21T04:20:57.675Z,14.83
2018-10-21T04:23:25.830Z,16.77
2018-10-21T04:25:53.979Z,15.50
2018-10-21T04:28:22.127Z,15.37
2018-10-21T04:30:50.306Z,16.03
2018-10-21T04:33:51.974Z,12.37
2018-10-21T04:36:24.832Z,11.57
2018-10-21T04:40:11.668Z,15.67
2018-10-21T04:42:39.723Z,15.37
2018-10-21T04:45:08.423Z,13.67
2018-10-21T04:47:36.578Z,15.37
2018-10-21T04:50:05.250Z,16.37
2018-10-21T04:52:33.880Z,17.27
2018-10-21T04:55:08.079Z,13.33
2018-10-21T04:57:37.235Z,16.87
2018-10-21T05:00:08.538Z,15.93
2018-10-21T05:02:36.706Z,14.50
2018-10-21T05:05:05.567Z,15.10
2018-10-21T05:07:33.797Z,15.83
2018-10-21T05:10:02.016Z,15.57
2018-10-21T05:12:30.288Z,13.10
2018-10-21T05:14:58.445Z,14.40
2018-10-21T05:17:26.639Z,16.63
2018-10-21T05:19:54.819Z,15.13
2018-10-21T05:22:23.028Z,14.50
2018-10-21T05:24:51.189Z,16.40
2018-10-21T05:27:19.363Z,16.77
2018-10-21T05:29:47.514Z,16.37
2018-10-21T05:32:15.678Z,16.03
2018-10-21T05:34:43.836Z,14.70
2018-10-21T05:37:11.990Z,14.67
2018-10-21T05:39:40.167Z,16.90
2018-10-21T05:42:08.348Z,15.53
2018-10-21T05:44:36.554Z,15.00
2018-10-21T05:47:05.153Z,15.80
2018-10-21T05:49:33.343Z,14.33
2018-10-21T05:52:01.625Z,16.17
2018-10-21T05:54:29.908Z,14.13
2018-10-21T05:56:58.267Z,14.67
2018-10-21T05:59:26.429Z,16.20
2018-10-21T06:01:54.694Z,15.53
2018-10-21T06:04:23.186Z,16.90
2018-10-21T06:06:51.451Z,14.83
2018-10-21T06:09:19.713Z,16.47
2018-10-21T06:11:47.998Z,15.33
2018-10-21T06:14:16.279Z,15.33
2018-10-21T06:16:49.996Z,15.00
2018-10-21T06:19:23.196Z,16.70
2018-10-21T06:21:51.388Z,15.60
2018-10-21T06:24:19.631Z,13.57
2018-10-21T06:26:47.839Z,13.90
2018-10-21T06:29:16.019Z,13.63
2018-10-21T06:31:44.170Z,13.50
2018-10-21T06:34:12.359Z,14.90
2018-10-21T06:36:40.678Z,14.40
2018-10-21T06:39:09.325Z,14.90
2018-10-21T06:41:37.486Z,15.53
2018-10-21T06:44:06.046Z,14.30
2018-10-21T06:46:34.294Z,13.80
2018-10-21T06:49:02.503Z,15.73
2018-10-21T06:51:30.758Z,13.37
2018-10-21T06:53:58.956Z,15.37
2018-10-21T06:56:27.170Z,13.73
2018-10-21T06:58:55.356Z,11.93
2018-10-21T07:01:23.534Z,13.80
2018-10-21T07:03:51.710Z,13.03
2018-10-21T07:06:27.470Z,15.57
2018-10-21T07:08:56.898Z,10.10
2018-10-21T07:11:25.109Z,14.83
2018-10-21T07:13:53.270Z,13.83
2018-10-21T07:16:21.522Z,16.57
2018-10-21T07:18:50.039Z,14.30
2018-10-21T07:21:18.491Z,14.30
2018-10-21T07:23:46.989Z,13.30
2018-10-21T07:26:15.270Z,12.07
2018-10-21T07:28:43.620Z,15.67
2018-10-21T07:31:11.899Z,12.67
2018-10-21T07:33:40.310Z,15.60
2018-10-21T07:36:08.596Z,15.67
2018-10-21T07:38:36.811Z,14.80
2018-10-21T07:41:05.069Z,15.43
2018-10-21T07:43:33.257Z,14.37
2018-10-21T07:46:03.127Z,15.77
2018-10-21T07:48:32.754Z,16.60
2018-10-21T07:51:00.959Z,14.53
2018-10-21T07:53:29.138Z,15.03
2018-10-21T07:55:57.391Z,17.43
2018-10-21T07:58:25.547Z,15.77
2018-10-21T08:00:54.535Z,14.63
2018-10-21T08:03:22.758Z,14.65
2018-10-21T08:06:02.395Z,13.67
2018-10-21T08:08:30.692Z,17.20
2018-10-21T08:10:58.798Z,12.23
2018-10-21T08:13:27.647Z,13.55
2018-10-21T08:15:55.852Z,18.30
2018-10-21T08:18:23.974Z,14.40
2018-10-21T08:20:52.159Z,14.13
2018-10-21T08:23:20.599Z,17.00
2018-10-21T08:25:50.100Z,16.53
2018-10-21T08:28:18.304Z,15.18
2018-10-21T08:30:46.563Z,15.45
2018-10-21T08:33:14.854Z,16.62
2018-10-21T08:35:43.123Z,18.90
2018-10-21T08:38:11.670Z,19.70
2018-10-21T08:40:40.318Z,18.42
2018-10-21T08:43:10.013Z,16.02
2018-10-21T08:45:38.994Z,15.38
2018-10-21T08:48:07.937Z,16.65
2018-10-21T08:50:36.274Z,15.45
2018-10-21T08:53:05.064Z,18.60
2018-10-21T08:55:33.263Z,17.77
2018-10-21T08:58:01.585Z,20.48
2018-10-21T09:00:30.090Z,20.68
2018-10-21T09:02:58.297Z,21.75
2018-10-21T09:05:26.659Z,21.55
2018-10-21T09:07:54.855Z,21.40
2018-10-21T09:10:23.331Z,20.75
2018-10-21T09:12:51.316Z,19.75
2018-10-21T09:15:19.496Z,21.17
2018-10-21T09:17:47.698Z,20.27
2018-10-21T09:20:17.822Z,21.37
2018-10-21T09:22:46.004Z,21.55
2018-10-21T09:25:14.848Z,23.20
2018-10-21T09:27:44.032Z,21.77
2018-10-21T09:30:14.955Z,20.55
2018-10-21T09:32:43.103Z,20.27
2018-10-21T09:35:13.978Z,22.52
2018-10-21T09:37:42.498Z,22.52
2018-10-21T09:40:12.922Z,23.18
2018-10-21T09:42:41.137Z,21.85
2018-10-21T09:45:10.964Z,22.05
2018-10-21T09:47:39.380Z,22.32
2018-10-21T09:50:07.638Z,20.15
2018-10-21T09:52:35.767Z,21.75
2018-10-21T09:55:04.118Z,20.68
2018-10-21T09:57:32.360Z,15.65
2018-10-21T10:00:00.540Z,18.15
2018-10-21T10:02:34.128Z,16.37
2018-10-21T10:05:02.316Z,19.62
2018-10-21T10:07:30.463Z,20.37
2018-10-21T10:09:58.701Z,18.65
2018-10-21T10:12:26.846Z,20.37
2018-10-21T10:14:55.072Z,15.55
2018-10-21T10:17:23.310Z,18.62
2018-10-21T10:19:51.598Z,18.12
2018-10-21T10:22:19.794Z,17.32
2018-10-21T10:24:47.971Z,16.40
2018-10-21T10:27:16.216Z,15.70
2018-10-21T10:29:44.404Z,16.07
2018-10-21T10:32:12.721Z,14.03
2018-10-21T10:34:40.902Z,17.12
2018-10-21T10:37:09.160Z,16.70
2018-10-21T10:39:37.335Z,17.48
2018-10-21T10:42:05.832Z,16.73
2018-10-21T10:44:33.786Z,16.00
2018-10-21T10:47:01.965Z,16.45
2018-10-21T10:49:30.191Z,14.85
2018-10-21T10:51:58.366Z,14.20
2018-10-21T10:54:26.528Z,16.32
2018-10-21T10:56:54.835Z,15.32
2018-10-21T10:59:23.033Z,12.60
2018-10-21T11:01:51.192Z,14.13
2018-10-21T11:04:19.491Z,16.25
2018-10-21T11:06:47.654Z,9.73
2018-10-21T11:09:15.808Z,11.60
2018-10-21T11:11:43.995Z,13.35
2018-10-21T11:14:12.203Z,11.30
2018-10-21T11:16:40.363Z,10.48
2018-10-21T11:19:08.638Z,11.45
2018-10-21T11:21:36.829Z,7.08
2018-10-21T11:24:04.978Z,10.58
2018-10-21T11:26:33.381Z,7.30
2018-10-21T11:29:01.863Z,10.20
2018-10-21T11:31:30.140Z,8.38
2018-10-21T11:33:58.383Z,11.12
2018-10-21T11:36:26.573Z,8.55
2018-10-21T11:39:03.526Z,12.00
2018-10-21T11:41:31.762Z,8.50
2018-10-21T11:43:59.998Z,8.05
2018-10-21T11:46:28.202Z,10.58
2018-10-21T11:48:56.411Z,7.25
2018-10-21T11:51:24.597Z,8.05
2018-10-21T11:53:52.778Z,9.98
2018-10-21T11:56:21.062Z,11.45
2018-10-21T11:58:49.264Z,6.90
2018-10-21T12:01:17.521Z,6.87
2018-10-21T12:03:45.603Z,9.88
2018-10-21T12:06:13.794Z,5.60
2018-10-21T12:08:42.030Z,9.00
2018-10-21T12:11:10.205Z,8.65
2018-10-21T12:13:38.394Z,8.10
2018-10-21T12:16:06.633Z,5.30
2018-10-21T12:18:34.778Z,8.63
2018-10-21T12:21:02.971Z,8.53
2018-10-21T12:23:31.213Z,7.62
2018-10-21T12:25:59.307Z,6.60
2018-10-21T12:28:28.225Z,4.15
2018-10-21T12:30:56.688Z,4.58
2018-10-21T12:33:24.819Z,7.03
2018-10-21T12:35:52.980Z,6.55
2018-10-21T12:38:21.207Z,6.47
2018-10-21T12:40:49.403Z,7.95
2018-10-21T12:43:17.613Z,5.90
2018-10-21T12:45:45.825Z,6.28
2018-10-21T12:48:14.635Z,4.03
2018-10-21T12:50:42.831Z,4.17
2018-10-21T12:53:11.137Z,4.45
2018-10-21T12:55:44.616Z,6.70
2018-10-21T12:58:13.015Z,4.67
2018-10-21T13:00:41.147Z,6.05
2018-10-21T13:03:09.386Z,4.50
2018-10-21T13:05:37.554Z,5.53
2018-10-21T13:08:05.763Z,5.62
2018-10-21T13:10:33.962Z,4.00
2018-10-21T13:13:02.284Z,5.45
2018-10-21T13:15:30.391Z,3.92
2018-10-21T13:17:58.686Z,6.45
2018-10-21T13:20:26.874Z,4.12
2018-10-21T13:22:55.127Z,5.65
2018-10-21T13:25:23.323Z,5.80
2018-10-21T13:27:51.536Z,4.30
2018-10-21T13:30:19.850Z,4.05
2018-10-21T13:32:48.027Z,4.65
2018-10-21T13:35:16.210Z,3.45
2018-10-21T13:37:44.455Z,5.55
2018-10-21T13:40:12.683Z,4.15
2018-10-21T13:42:40.822Z,4.00
2018-10-21T13:45:09.014Z,4.60
2018-10-21T13:47:37.202Z,3.85
2018-10-21T13:50:07.393Z,4.00
2018-10-21T13:52:35.690Z,4.00
2018-10-21T13:55:03.838Z,3.98
2018-10-21T13:57:32.093Z,4.62
2018-10-21T14:00:00.350Z,3.67
2018-10-21T14:02:28.512Z,4.25
2018-10-21T14:04:56.715Z,3.05
2018-10-21T14:07:24.944Z,3.67
2018-10-21T14:09:53.099Z,3.83
2018-10-21T14:12:21.392Z,4.22
2018-10-21T14:14:49.624Z,4.08
2018-10-21T14:17:17.747Z,4.20
2018-10-21T14:19:45.927Z,3.42
2018-10-21T14:22:14.559Z,2.90
2018-10-21T14:24:42.783Z,2.60
2018-10-21T14:27:10.878Z,3.12
2018-10-21T14:29:39.150Z,4.35
2018-10-21T14:32:07.351Z,4.20
2018-10-21T14:34:35.543Z,3.60
2018-10-21T14:37:03.828Z,4.42
2018-10-21T14:39:32.203Z,4.50
2018-10-21T14:42:00.492Z,5.10
2018-10-21T14:44:28.703Z,2.77
2018-10-21T14:46:56.945Z,2.10
2018-10-21T14:49:26.154Z,3.10
2018-10-21T14:51:54.346Z,3.55
2018-10-21T14:54:22.562Z,2.87
2018-10-21T14:56:50.780Z,3.98
2018-10-21T14:59:18.928Z,3.77
2018-10-21T15:01:47.143Z,4.00
2018-10-21T15:04:15.390Z,4.28
2018-10-21T15:06:43.519Z,3.77
2018-10-21T15:09:13.453Z,3.40
2018-10-21T15:11:42.108Z,4.10
2018-10-21T15:14:11.192Z,4.50
2018-10-21T15:16:39.617Z,4.05
2018-10-21T15:19:07.769Z,4.22
2018-10-21T15:21:36.279Z,3.85
2018-10-21T15:24:04.428Z,3.72
2018-10-21T15:26:32.723Z,4.45
2018-10-21T15:29:00.910Z,4.95
2018-10-21T15:31:29.075Z,4.37
2018-10-21T15:33:57.447Z,5.00
2018-10-21T15:36:25.713Z,3.52
2018-10-21T15:38:53.877Z,3.20
2018-10-21T15:41:22.083Z,3.92
2018-10-21T15:43:50.250Z,4.80
2018-10-21T15:46:18.514Z,5.25
2018-10-21T15:48:46.831Z,4.25
2018-10-21T15:51:14.975Z,4.67
2018-10-21T15:53:43.150Z,4.70
2018-10-21T15:56:11.402Z,5.30
2018-10-21T15:58:39.479Z,4.70
2018-10-21T16:01:07.642Z,4.92
2018-10-21T16:03:35.826Z,5.22
2018-10-21T16:06:03.987Z,3.87
2018-10-21T16:08:32.204Z,4.70
2018-10-21T16:11:00.405Z,4.40
2018-10-21T16:13:28.579Z,4.37
2018-10-21T16:15:56.786Z,4.87
2018-10-21T16:18:24.948Z,4.25
2018-10-21T16:20:53.124Z,4.72
2018-10-21T16:23:21.300Z,4.60
2018-10-21T16:25:49.549Z,4.87
2018-10-21T16:28:17.662Z,5.03
2018-10-21T16:30:45.803Z,4.92
2018-10-21T16:33:13.963Z,5.12
2018-10-21T16:35:42.160Z,5.20
2018-10-21T16:38:10.348Z,4.72
2018-10-21T16:40:38.714Z,5.20
2018-10-21T16:43:07.066Z,5.55
2018-10-21T16:45:35.306Z,4.90
2018-10-21T16:48:03.530Z,5.00
2018-10-21T16:50:31.681Z,4.87
2018-10-21T16:52:59.966Z,5.42
2018-10-21T16:55:28.142Z,5.40
2018-10-21T16:57:56.383Z,5.25
2018-10-21T17:00:24.722Z,5.42
2018-10-21T17:02:52.755Z,5.20
2018-10-21T17:05:20.928Z,5.15
2018-10-21T17:07:49.115Z,5.75
2018-10-21T17:10:17.783Z,5.08
2018-10-21T17:12:45.668Z,5.37
2018-10-21T17:15:13.866Z,4.80
2018-10-21T17:17:42.687Z,4.50
2018-10-21T17:20:13.554Z,5.40
2018-10-21T17:22:42.600Z,6.22
2018-10-21T17:25:10.965Z,6.05
2018-10-21T17:27:39.179Z,7.17
2018-10-21T17:30:09.899Z,6.90
2018-10-21T17:32:38.158Z,6.40
2018-10-21T17:35:07.027Z,7.10
2018-10-21T17:37:35.201Z,6.62
2018-10-21T17:40:03.455Z,7.95
2018-10-21T17:42:31.571Z,8.00
2018-10-21T17:44:59.742Z,8.05
2018-10-21T17:47:28.038Z,6.20
2018-10-21T17:49:56.414Z,7.45
2018-10-21T17:52:24.637Z,7.17
2018-10-21T17:54:52.762Z,7.70
2018-10-21T17:57:20.937Z,8.50
2018-10-21T17:59:49.171Z,7.75
2018-10-21T18:02:17.487Z,7.28
2018-10-21T18:04:45.660Z,7.47
2018-10-21T18:07:13.938Z,7.28
2018-10-21T18:09:42.043Z,8.55
2018-10-21T18:12:10.272Z,8.65
2018-10-21T18:14:38.466Z,8.25
2018-10-21T18:17:06.722Z,7.58
2018-10-21T18:19:34.898Z,8.00
2018-10-21T18:22:03.167Z,7.83
2018-10-21T18:24:31.274Z,8.20
2018-10-21T18:26:59.460Z,9.30
2018-10-21T18:29:27.809Z,8.80
2018-10-21T18:31:56.103Z,8.55
2018-10-21T18:34:24.286Z,9.13
2018-10-21T18:36:52.503Z,8.65
2018-10-21T18:39:20.690Z,9.88
2018-10-21T18:41:48.871Z,9.28
2018-10-21T18:44:19.892Z,9.20
2018-10-21T18:46:54.201Z,9.10
2018-10-21T18:52:26.889Z,9.90
2018-10-21T18:54:59.338Z,10.05
2018-10-21T18:57:44.080Z,9.85
2018-10-21T19:00:22.538Z,8.98
2018-10-21T19:03:15.081Z,11.78
2018-10-21T19:05:47.372Z,11.75
2018-10-21T19:08:18.225Z,11.03
2018-10-21T19:11:02.376Z,11.15
2018-10-21T19:13:33.186Z,10.03
2018-10-21T19:16:02.573Z,10.90
2018-10-21T19:18:38.592Z,10.95
2018-10-21T19:21:08.175Z,9.93
2018-10-21T19:23:39.865Z,10.00
2018-10-21T19:26:10.886Z,10.38
2018-10-21T19:28:44.624Z,10.53
2018-10-21T19:31:13.079Z,11.57
2018-10-21T19:33:41.769Z,10.10
2018-10-21T19:36:09.997Z,15.58
2018-10-21T19:38:38.517Z,13.78
2018-10-21T19:41:07.743Z,12.00
2018-10-21T19:43:35.974Z,11.10
2018-10-21T19:46:05.005Z,10.58
2018-10-21T19:48:33.179Z,11.12
2018-10-21T19:51:01.413Z,11.05
2018-10-21T19:53:29.666Z,11.35
2018-10-21T19:55:57.843Z,10.38
2018-10-21T19:58:26.037Z,9.23
2018-10-21T20:00:56.092Z,10.48
2018-10-21T20:03:24.206Z,10.78
2018-10-21T20:05:52.415Z,9.45
2018-10-21T20:08:20.606Z,9.75
2018-10-21T20:10:48.870Z,12.13
2018-10-21T20:13:17.129Z,10.80
2018-10-21T20:15:45.290Z,10.65
2018-10-21T20:18:14.465Z,9.73
2018-10-21T20:20:42.957Z,11.10
2018-10-21T20:23:11.119Z,12.45
2018-10-21T20:25:42.375Z,11.90
2018-10-21T20:28:10.664Z,11.53
2018-10-21T20:30:38.835Z,10.78
2018-10-21T20:33:07.144Z,11.30
2018-10-21T20:35:35.293Z,11.30
2018-10-21T20:38:03.460Z,9.78
2018-10-21T20:40:31.743Z,11.85
2018-10-21T20:42:59.962Z,12.05
2018-10-21T20:45:28.143Z,11.28
2018-10-21T20:47:56.325Z,11.25
2018-10-21T20:50:24.487Z,11.33
2018-10-21T20:52:52.715Z,11.83
2018-10-21T20:55:20.896Z,12.07
2018-10-21T20:57:49.102Z,11.12
2018-10-21T21:00:17.345Z,11.30
2018-10-21T21:02:45.470Z,11.60
2018-10-21T21:05:13.668Z,10.38
2018-10-21T21:07:41.915Z,11.65
2018-10-21T21:10:10.202Z,12.40
2018-10-21T21:12:38.314Z,11.90
2018-10-21T21:15:06.970Z,11.88
2018-10-21T21:17:35.133Z,12.00
2018-10-21T21:20:03.290Z,11.38
2018-10-21T21:22:31.442Z,11.20
2018-10-21T21:24:59.613Z,11.38
2018-10-21T21:27:27.778Z,11.22
2018-10-21T21:29:55.932Z,11.43
2018-10-21T21:32:24.090Z,11.80
2018-10-21T21:34:52.246Z,11.88
2018-10-21T21:37:20.419Z,10.93
2018-10-21T21:39:48.566Z,12.20
2018-10-21T21:42:16.845Z,11.00
2018-10-21T21:44:44.926Z,9.93
2018-10-21T21:47:13.094Z,10.15
2018-10-21T21:49:41.266Z,10.93
2018-10-21T21:52:09.441Z,10.43
2018-10-21T21:54:37.568Z,10.43
2018-10-21T21:57:05.759Z,11.90
2018-10-21T21:59:33.911Z,11.50
2018-10-21T22:02:02.062Z,11.50
2018-10-21T22:04:30.222Z,8.45
2018-10-21T22:06:58.394Z,10.50
2018-10-21T22:09:26.543Z,11.30
2018-10-21T22:11:54.705Z,11.40
2018-10-21T22:14:22.891Z,11.08
2018-10-21T22:16:51.115Z,10.55
2018-10-21T22:19:19.280Z,8.18
2018-10-21T22:21:47.466Z,11.53
2018-10-21T22:24:15.674Z,11.15
2018-10-21T22:26:43.812Z,10.58
2018-10-21T22:29:11.997Z,11.55
2018-10-21T22:31:40.222Z,11.00
2018-10-21T22:34:08.439Z,10.98
2018-10-21T22:36:36.491Z,10.72
2018-10-21T22:39:06.043Z,10.75
2018-10-21T22:41:34.219Z,11.30
2018-10-21T22:44:02.397Z,10.55
2018-10-21T22:46:30.584Z,9.30
2018-10-21T22:48:58.675Z,10.55
2018-10-21T22:51:26.952Z,9.88
2018-10-21T22:53:55.149Z,9.08
2018-10-21T22:56:23.300Z,10.40
2018-10-21T22:58:51.622Z,9.43
2018-10-21T23:01:19.788Z,11.12
2018-10-21T23:03:48.159Z,10.13
2018-10-21T23:06:16.369Z,10.03
2018-10-21T23:08:44.466Z,8.98
2018-10-21T23:11:12.690Z,11.40
2018-10-21T23:13:40.860Z,10.93
2018-10-21T23:16:09.426Z,9.65
2018-10-21T23:18:37.599Z,9.85
2018-10-21T23:21:05.999Z,9.80
2018-10-21T23:23:34.150Z,7.92
2018-10-21T23:26:02.306Z,9.18
2018-10-21T23:28:30.511Z,7.83
2018-10-21T23:30:58.685Z,9.00
2018-10-21T23:33:26.861Z,9.83
2018-10-21T23:35:55.007Z,9.18
2018-10-21T23:38:23.154Z,8.70
2018-10-21T23:40:51.395Z,10.23
2018-10-21T23:43:19.571Z,8.38
2018-10-21T23:45:47.719Z,10.85
2018-10-21T23:48:15.900Z,10.18
2018-10-21T23:50:44.034Z,11.25
2018-10-21T23:53:12.204Z,9.80
2018-10-21T23:55:40.351Z,9.03
2018-10-21T23:58:08.554Z,10.13
